createdAt,value
2023-03-12T00:00:10.591Z,2.30
2023-03-12T00:02:37.844Z,2.30
2023-03-12T00:05:05.856Z,2.30
2023-03-12T00:07:33.127Z,2.30
2023-03-12T00:10:00.561Z,2.40
2023-03-12T00:12:27.842Z,2.30
2023-03-12T00:14:55.072Z,2.30
2023-03-12T00:17:22.550Z,2.40
2023-03-12T00:19:54.175Z,2.30
2023-03-12T00:22:26.042Z,2.40
2023-03-12T00:24:55.861Z,2.40
2023-03-12T00:27:24.011Z,2.40
2023-03-12T00:29:51.280Z,2.40
2023-03-12T00:32:18.667Z,2.40
2023-03-12T00:34:56.674Z,2.40
2023-03-12T00:37:23.689Z,2.40
2023-03-12T00:39:50.987Z,2.40
2023-03-12T00:42:19.291Z,2.40
2023-03-12T00:44:46.466Z,2.40
2023-03-12T00:47:14.035Z,2.40
2023-03-12T00:49:41.410Z,2.40
2023-03-12T00:52:08.872Z,2.40
2023-03-12T00:54:36.147Z,2.50
2023-03-12T00:57:03.795Z,2.50
2023-03-12T00:59:31.758Z,2.50
2023-03-12T01:01:58.914Z,2.50
2023-03-12T01:04:26.137Z,2.50
2023-03-12T01:06:54.979Z,2.50
2023-03-12T01:09:22.272Z,2.50
2023-03-12T01:11:49.614Z,2.50
2023-03-12T01:14:16.765Z,2.50
2023-03-12T01:16:44.058Z,2.60
2023-03-12T01:19:12.349Z,2.50
2023-03-12T01:21:40.110Z,2.60
2023-03-12T01:24:08.022Z,2.60
2023-03-12T01:26:35.331Z,2.50
2023-03-12T01:29:02.493Z,2.50
2023-03-12T01:31:29.794Z,2.60
2023-03-12T01:33:57.534Z,2.60
2023-03-12T01:36:28.983Z,2.60
2023-03-12T01:38:59.513Z,2.60
2023-03-12T01:41:32.256Z,2.60
2023-03-12T01:44:03.947Z,2.60
2023-03-12T01:46:43.330Z,2.60
2023-03-12T01:49:17.785Z,2.60
2023-03-12T01:52:03.714Z,2.60
2023-03-12T01:54:39.184Z,2.60
2023-03-12T01:57:14.917Z,2.60
2023-03-12T01:59:54.136Z,2.60
2023-03-12T02:02:27.198Z,2.60
2023-03-12T02:05:16.816Z,2.60
2023-03-12T02:07:43.819Z,2.60
2023-03-12T02:10:11.883Z,2.60
2023-03-12T02:12:39.141Z,2.70
2023-03-12T02:15:07.741Z,2.60
2023-03-12T02:17:37.510Z,2.60
2023-03-12T02:20:18.367Z,2.60
2023-03-12T02:22:56.865Z,2.70
2023-03-12T02:25:30.904Z,2.60
2023-03-12T02:28:00.375Z,2.60
2023-03-12T02:30:30.066Z,2.70
2023-03-12T02:33:01.543Z,2.70
2023-03-12T02:35:28.876Z,2.70
2023-03-12T02:37:57.405Z,2.70
2023-03-12T02:40:37.024Z,2.70
2023-03-12T02:43:08.664Z,2.60
2023-03-12T02:45:37.801Z,2.60
2023-03-12T02:48:09.319Z,2.70
2023-03-12T02:50:36.673Z,2.70
2023-03-12T02:53:03.815Z,2.70
2023-03-12T02:55:31.152Z,2.80
2023-03-12T02:57:58.489Z,2.70
2023-03-12T03:00:25.836Z,2.70
2023-03-12T03:02:52.930Z,2.70
2023-03-12T03:05:21.477Z,2.70
2023-03-12T03:07:48.537Z,2.70
2023-03-12T03:10:17.466Z,2.70
2023-03-12T03:12:44.736Z,2.70
2023-03-12T03:15:12.102Z,2.70
2023-03-12T03:17:39.574Z,2.70
2023-03-12T03:20:11.197Z,2.70
2023-03-12T03:22:39.565Z,2.70
2023-03-12T03:25:08.858Z,2.60
2023-03-12T03:27:36.467Z,2.60
2023-03-12T03:30:05.894Z,2.50
2023-03-12T03:32:35.594Z,2.50
2023-03-12T03:35:03.241Z,2.50
2023-03-12T03:37:30.283Z,2.50
2023-03-12T03:39:57.626Z,2.50
2023-03-12T03:42:24.761Z,2.60
2023-03-12T03:44:51.715Z,2.50
2023-03-12T03:47:18.671Z,2.50
2023-03-12T03:49:46.068Z,2.60
2023-03-12T03:52:13.289Z,2.60
2023-03-12T03:54:40.568Z,2.60
2023-03-12T03:57:07.772Z,2.50
2023-03-12T03:59:35.149Z,2.50
2023-03-12T04:02:02.363Z,2.50
2023-03-12T04:04:31.489Z,2.40
2023-03-12T04:06:59.296Z,2.40
2023-03-12T04:09:26.917Z,2.40
2023-03-12T04:11:54.244Z,2.40
2023-03-12T04:14:21.438Z,2.40
2023-03-12T04:16:48.596Z,2.50
2023-03-12T04:19:15.625Z,2.50
2023-03-12T04:21:42.977Z,2.50
2023-03-12T04:24:15.627Z,2.50
2023-03-12T04:26:43.079Z,2.50
2023-03-12T04:29:10.378Z,2.50
2023-03-12T04:31:37.738Z,2.50
2023-03-12T04:34:05.067Z,2.60
2023-03-12T04:36:32.512Z,2.60
2023-03-12T04:38:59.748Z,2.60
2023-03-12T04:41:27.894Z,2.60
2023-03-12T04:43:55.276Z,2.60
2023-03-12T04:46:22.458Z,2.60
2023-03-12T04:48:49.643Z,2.60
2023-03-12T04:51:16.688Z,2.60
2023-03-12T04:53:43.942Z,2.60
2023-03-12T04:56:11.260Z,2.60
2023-03-12T04:58:38.788Z,2.70
2023-03-12T05:01:05.855Z,2.70
2023-03-12T05:03:33.325Z,2.70
2023-03-12T05:06:00.368Z,2.70
2023-03-12T05:08:27.590Z,2.70
2023-03-12T05:10:55.332Z,2.80
2023-03-12T05:13:23.585Z,2.80
2023-03-12T05:15:52.268Z,2.80
2023-03-12T05:18:21.524Z,2.80
2023-03-12T05:21:02.682Z,2.80
2023-03-12T05:23:30.725Z,2.80
2023-03-12T05:25:58.130Z,2.80
2023-03-12T05:28:29.390Z,2.70
2023-03-12T05:30:58.000Z,2.70
2023-03-12T05:33:27.340Z,2.80
2023-03-12T05:35:55.059Z,2.80
2023-03-12T05:38:22.361Z,2.80
2023-03-12T05:40:59.377Z,2.80
2023-03-12T05:43:28.280Z,2.80
2023-03-12T05:46:04.116Z,2.90
2023-03-12T05:48:31.952Z,2.90
2023-03-12T05:50:59.152Z,2.90
2023-03-12T05:53:26.492Z,2.90
2023-03-12T05:55:53.757Z,2.90
2023-03-12T05:58:20.925Z,2.90
2023-03-12T06:00:48.004Z,3.00
2023-03-12T06:03:15.033Z,3.00
2023-03-12T06:05:46.432Z,3.00
2023-03-12T06:08:14.070Z,3.00
2023-03-12T06:10:41.239Z,3.00
2023-03-12T06:13:09.422Z,3.10
2023-03-12T06:15:37.211Z,3.10
2023-03-12T06:18:04.774Z,3.10
2023-03-12T06:20:33.193Z,3.10
2023-03-12T06:23:00.940Z,3.10
2023-03-12T06:25:28.541Z,3.10
2023-03-12T06:27:55.706Z,3.10
2023-03-12T06:30:23.071Z,3.20
2023-03-12T06:32:50.261Z,3.20
2023-03-12T06:35:17.428Z,3.20
2023-03-12T06:37:44.548Z,3.20
2023-03-12T06:40:13.111Z,3.20
2023-03-12T06:42:40.380Z,3.20
2023-03-12T06:45:08.692Z,3.30
2023-03-12T06:47:35.914Z,3.30
2023-03-12T06:50:03.238Z,3.30
2023-03-12T06:52:30.295Z,3.30
2023-03-12T06:54:57.430Z,3.40
2023-03-12T06:57:24.723Z,3.40
2023-03-12T06:59:52.418Z,3.40
2023-03-12T07:02:19.990Z,3.40
2023-03-12T07:04:47.211Z,3.40
2023-03-12T07:07:14.344Z,3.40
2023-03-12T07:09:41.529Z,3.40
2023-03-12T07:12:09.082Z,3.40
2023-03-12T07:14:36.545Z,3.50
2023-03-12T07:17:04.257Z,3.50
2023-03-12T07:19:31.622Z,3.60
2023-03-12T07:21:58.889Z,3.50
2023-03-12T07:24:25.985Z,3.60
2023-03-12T07:26:52.985Z,3.60
2023-03-12T07:29:20.248Z,3.60
2023-03-12T07:31:47.630Z,3.60
2023-03-12T07:34:15.196Z,3.70
2023-03-12T07:36:42.508Z,3.70
2023-03-12T07:39:09.632Z,3.80
2023-03-12T07:41:39.004Z,3.80
2023-03-12T07:44:06.855Z,3.80
2023-03-12T07:46:34.272Z,3.90
2023-03-12T07:49:01.816Z,3.90
2023-03-12T07:51:28.943Z,4.00
2023-03-12T07:53:56.192Z,4.00
2023-03-12T07:56:23.444Z,4.00
2023-03-12T07:58:50.772Z,4.10
2023-03-12T08:01:18.567Z,4.20
2023-03-12T08:03:45.873Z,4.20
2023-03-12T08:06:13.208Z,4.20
2023-03-12T08:08:42.438Z,4.30
2023-03-12T08:11:10.567Z,4.30
2023-03-12T08:13:37.606Z,4.40
2023-03-12T08:16:06.497Z,4.50
2023-03-12T08:18:34.628Z,4.60
2023-03-12T08:21:01.862Z,4.60
2023-03-12T08:23:29.125Z,4.70
2023-03-12T08:25:56.567Z,4.80
2023-03-12T08:28:24.894Z,4.80
2023-03-12T08:30:55.976Z,4.90
2023-03-12T08:33:23.264Z,5.00
2023-03-12T08:35:50.861Z,5.00
2023-03-12T08:38:18.610Z,5.10
2023-03-12T08:40:45.947Z,5.20
2023-03-12T08:43:13.233Z,5.20
2023-03-12T08:45:40.742Z,5.30
2023-03-12T08:48:08.697Z,5.30
2023-03-12T08:50:36.238Z,5.40
2023-03-12T08:53:03.625Z,5.50
2023-03-12T08:55:30.934Z,5.50
2023-03-12T08:57:58.352Z,5.60
2023-03-12T09:00:25.466Z,5.70
2023-03-12T09:02:54.070Z,5.70
2023-03-12T09:05:21.431Z,5.80
2023-03-12T09:07:50.187Z,5.80
2023-03-12T09:10:18.225Z,5.90
2023-03-12T09:12:45.610Z,6.00
2023-03-12T09:15:13.177Z,6.00
2023-03-12T09:17:40.470Z,6.20
2023-03-12T09:20:10.369Z,6.20
2023-03-12T09:22:38.127Z,6.40
2023-03-12T09:25:07.131Z,6.50
2023-03-12T09:27:45.851Z,6.60
2023-03-12T09:30:19.988Z,6.70
2023-03-12T09:32:47.666Z,6.80
2023-03-12T09:35:16.488Z,6.90
2023-03-12T09:37:43.835Z,7.00
2023-03-12T09:40:21.160Z,7.20
2023-03-12T09:42:58.116Z,7.30
2023-03-12T09:45:38.894Z,7.40
2023-03-12T09:48:14.082Z,7.50
2023-03-12T09:50:50.220Z,7.60
2023-03-12T09:53:28.421Z,7.70
2023-03-12T09:55:58.509Z,7.70
2023-03-12T09:58:34.434Z,7.80
2023-03-12T10:01:27.308Z,7.90
2023-03-12T10:04:27.840Z,7.90
2023-03-12T10:07:03.666Z,8.00
2023-03-12T10:10:23.756Z,7.90
2023-03-12T10:13:24.257Z,8.00
2023-03-12T10:16:01.978Z,8.10
2023-03-12T10:18:48.422Z,8.10
2023-03-12T10:21:29.431Z,8.20
2023-03-12T10:24:35.445Z,8.20
2023-03-12T10:27:12.546Z,8.30
2023-03-12T10:29:46.729Z,8.40
2023-03-12T10:32:19.882Z,8.40
2023-03-12T10:34:58.216Z,8.50
2023-03-12T10:37:50.144Z,8.50
2023-03-12T10:40:24.768Z,8.60
2023-03-12T10:42:52.760Z,8.70
2023-03-12T10:45:47.905Z,8.80
2023-03-12T10:48:25.704Z,8.90
2023-03-12T10:51:11.533Z,8.90
2023-03-12T10:53:44.864Z,8.90
2023-03-12T10:56:20.823Z,8.90
2023-03-12T10:58:54.172Z,9.10
2023-03-12T11:01:31.836Z,9.10
2023-03-12T11:04:18.684Z,9.30
2023-03-12T11:07:04.628Z,9.30
2023-03-12T11:09:31.858Z,9.50
2023-03-12T11:11:59.001Z,9.50
2023-03-12T11:14:30.044Z,9.70
2023-03-12T11:17:17.625Z,9.70
2023-03-12T11:19:44.656Z,9.90
2023-03-12T11:22:12.002Z,10.00
2023-03-12T11:25:04.419Z,10.10
2023-03-12T11:27:49.593Z,10.20
2023-03-12T11:30:23.649Z,10.00
2023-03-12T11:32:51.767Z,10.10
2023-03-12T11:35:43.345Z,10.10
2023-03-12T11:38:21.389Z,10.00
2023-03-12T11:41:19.271Z,10.10
2023-03-12T11:44:29.185Z,10.30
2023-03-12T11:47:42.891Z,10.60
2023-03-12T11:50:37.182Z,10.70
2023-03-12T11:53:17.182Z,10.80
2023-03-12T11:55:56.832Z,10.90
2023-03-12T11:58:46.222Z,10.80
2023-03-12T12:01:43.435Z,10.90
2023-03-12T12:04:28.849Z,11.00
2023-03-12T12:07:16.128Z,11.30
2023-03-12T12:10:04.983Z,11.30
2023-03-12T12:12:56.381Z,11.30
2023-03-12T12:15:56.944Z,11.40
2023-03-12T12:18:54.912Z,11.60
2023-03-12T12:21:34.068Z,11.60
2023-03-12T12:24:12.813Z,11.80
2023-03-12T12:26:48.832Z,11.90
2023-03-12T12:29:51.436Z,11.90
2023-03-12T12:32:47.820Z,11.80
2023-03-12T12:35:26.422Z,12.00
2023-03-12T12:38:01.016Z,11.90
2023-03-12T12:40:51.551Z,12.00
2023-03-12T12:43:37.323Z,12.10
2023-03-12T12:46:17.390Z,12.10
2023-03-12T12:49:01.769Z,12.20
2023-03-12T12:51:36.627Z,12.10
2023-03-12T12:54:36.554Z,12.30
2023-03-12T12:58:13.683Z,12.30
2023-03-12T13:00:59.954Z,12.40
2023-03-12T13:03:29.395Z,12.40
2023-03-12T13:06:03.340Z,12.40
2023-03-12T13:08:42.991Z,12.60
2023-03-12T13:11:20.076Z,12.30
2023-03-12T13:14:07.118Z,12.30
2023-03-12T13:16:37.810Z,12.50
2023-03-12T13:19:13.701Z,12.50
2023-03-12T13:22:28.375Z,12.40
2023-03-12T13:25:56.832Z,12.40
2023-03-12T13:28:30.209Z,12.20
2023-03-12T13:31:00.111Z,12.10
2023-03-12T13:33:49.652Z,12.10
2023-03-12T13:36:16.942Z,12.20
2023-03-12T13:39:00.907Z,12.30
2023-03-12T13:41:41.090Z,12.40
2023-03-12T13:44:23.510Z,12.50
2023-03-12T13:47:12.026Z,12.50
2023-03-12T13:50:10.814Z,12.40
2023-03-12T13:52:47.111Z,12.40
2023-03-12T13:55:14.031Z,12.50
2023-03-12T13:57:51.485Z,12.50
2023-03-12T14:00:36.542Z,12.50
2023-03-12T14:03:20.653Z,12.50
2023-03-12T14:05:52.896Z,12.40
2023-03-12T14:09:09.096Z,12.30
2023-03-12T14:12:14.288Z,12.30
2023-03-12T14:15:14.127Z,12.20
2023-03-12T14:17:44.189Z,12.20
2023-03-12T14:20:17.436Z,12.20
2023-03-12T14:22:53.233Z,12.40
2023-03-12T14:25:43.463Z,12.40
2023-03-12T14:28:23.123Z,12.40
2023-03-12T14:31:16.960Z,12.40
2023-03-12T14:33:55.744Z,12.30
2023-03-12T14:36:28.934Z,12.20
2023-03-12T14:39:18.382Z,12.10
2023-03-12T14:41:54.487Z,12.10
2023-03-12T14:44:26.312Z,12.10
2023-03-12T14:47:11.167Z,12.10
2023-03-12T14:49:46.806Z,12.10
2023-03-12T14:52:34.206Z,12.10
2023-03-12T14:55:14.019Z,12.00
2023-03-12T14:57:41.697Z,11.90
2023-03-12T15:00:27.221Z,12.00
2023-03-12T15:02:59.863Z,12.00
2023-03-12T15:05:26.948Z,12.00
2023-03-12T15:08:00.887Z,12.00
2023-03-12T15:10:30.889Z,12.10
2023-03-12T15:13:01.425Z,12.00
2023-03-12T15:15:44.300Z,12.10
2023-03-12T15:18:26.057Z,12.20
2023-03-12T15:20:54.425Z,12.20
2023-03-12T15:23:24.469Z,12.30
2023-03-12T15:26:16.314Z,12.20
2023-03-12T15:28:43.964Z,12.20
2023-03-12T15:31:16.898Z,12.20
2023-03-12T15:33:45.008Z,12.30
2023-03-12T15:36:15.270Z,12.30
2023-03-12T15:38:51.533Z,12.30
2023-03-12T15:41:49.240Z,12.20
2023-03-12T15:44:42.838Z,12.10
2023-03-12T15:47:20.480Z,12.10
2023-03-12T15:50:18.207Z,12.10
2023-03-12T15:53:23.133Z,12.10
2023-03-12T15:56:07.634Z,12.00
2023-03-12T15:58:38.517Z,12.00
2023-03-12T16:01:18.245Z,12.00
2023-03-12T16:03:46.477Z,11.90
2023-03-12T16:06:19.753Z,11.90
2023-03-12T16:08:47.383Z,11.90
2023-03-12T16:11:25.914Z,11.90
2023-03-12T16:14:06.874Z,11.90
2023-03-12T16:16:34.601Z,11.90
2023-03-12T16:19:01.824Z,11.80
2023-03-12T16:21:28.924Z,11.80
2023-03-12T16:23:56.039Z,11.80
2023-03-12T16:26:23.233Z,11.80
2023-03-12T16:28:50.380Z,11.80
2023-03-12T16:31:17.850Z,11.70
2023-03-12T16:33:45.213Z,11.70
2023-03-12T16:36:19.252Z,11.70
2023-03-12T16:38:47.180Z,11.70
2023-03-12T16:41:19.580Z,11.70
2023-03-12T16:43:51.344Z,11.60
2023-03-12T16:46:21.276Z,11.60
2023-03-12T16:48:53.668Z,11.60
2023-03-12T16:51:21.746Z,11.60
2023-03-12T16:53:55.818Z,11.50
2023-03-12T16:56:33.115Z,11.50
2023-03-12T16:59:05.651Z,11.50
2023-03-12T17:01:33.164Z,11.50
2023-03-12T17:04:00.412Z,11.40
2023-03-12T17:06:28.299Z,11.40
2023-03-12T17:08:55.599Z,11.40
2023-03-12T17:11:34.959Z,11.40
2023-03-12T17:14:15.278Z,11.30
2023-03-12T17:16:42.657Z,11.30
2023-03-12T17:19:09.886Z,11.30
2023-03-12T17:21:37.815Z,11.30
2023-03-12T17:24:05.441Z,11.30
2023-03-12T17:26:32.731Z,11.20
2023-03-12T17:28:59.825Z,11.20
2023-03-12T17:31:27.095Z,11.20
2023-03-12T17:33:54.395Z,11.20
2023-03-12T17:36:21.504Z,11.20
2023-03-12T17:38:50.716Z,11.10
2023-03-12T17:41:27.308Z,11.10
2023-03-12T17:43:58.463Z,11.00
2023-03-12T17:46:25.612Z,11.10
2023-03-12T17:48:52.856Z,11.10
2023-03-12T17:51:21.207Z,11.10
2023-03-12T17:53:48.328Z,11.10
2023-03-12T17:56:17.939Z,11.10
2023-03-12T17:58:46.302Z,11.10
2023-03-12T18:01:14.300Z,11.10
2023-03-12T18:03:43.932Z,11.00
2023-03-12T18:06:11.737Z,11.00
2023-03-12T18:08:39.277Z,11.00
2023-03-12T18:11:06.394Z,11.00
2023-03-12T18:13:33.542Z,11.00
2023-03-12T18:16:00.799Z,11.00
2023-03-12T18:18:28.386Z,11.00
2023-03-12T18:20:56.227Z,11.00
2023-03-12T18:23:25.220Z,11.00
2023-03-12T18:25:52.633Z,10.90
2023-03-12T18:28:20.871Z,10.90
2023-03-12T18:30:48.587Z,10.90
2023-03-12T18:33:17.074Z,10.90
2023-03-12T18:35:44.618Z,10.90
2023-03-12T18:38:12.073Z,10.80
2023-03-12T18:40:39.573Z,10.80
2023-03-12T18:43:06.737Z,10.80
2023-03-12T18:45:33.800Z,10.80
2023-03-12T18:48:00.984Z,10.70
2023-03-12T18:50:28.187Z,10.70
2023-03-12T18:52:55.284Z,10.70
2023-03-12T18:55:23.042Z,10.70
2023-03-12T18:57:52.352Z,10.70
2023-03-12T19:00:19.799Z,10.60
2023-03-12T19:02:48.659Z,10.60
2023-03-12T19:05:17.148Z,10.60
2023-03-12T19:07:44.786Z,10.60
2023-03-12T19:10:16.546Z,10.50
2023-03-12T19:12:53.602Z,10.50
2023-03-12T19:15:24.123Z,10.40
2023-03-12T19:17:51.341Z,10.40
2023-03-12T19:20:18.758Z,10.30
2023-03-12T19:22:46.012Z,10.30
2023-03-12T19:25:13.910Z,10.20
2023-03-12T19:27:41.470Z,10.10
2023-03-12T19:30:09.451Z,10.10
2023-03-12T19:32:43.730Z,10.10
2023-03-12T19:35:14.167Z,10.00
2023-03-12T19:37:42.270Z,10.00
2023-03-12T19:40:11.032Z,10.00
2023-03-12T19:42:38.622Z,10.00
2023-03-12T19:45:06.708Z,10.00
2023-03-12T19:47:33.812Z,10.00
2023-03-12T19:50:01.226Z,10.00
2023-03-12T19:52:29.121Z,10.00
2023-03-12T19:55:04.309Z,10.00
2023-03-12T19:57:33.667Z,10.00
2023-03-12T20:00:01.406Z,9.90
2023-03-12T20:02:29.018Z,9.80
2023-03-12T20:04:56.344Z,9.80
2023-03-12T20:07:23.407Z,9.80
2023-03-12T20:09:51.778Z,9.70
2023-03-12T20:12:18.840Z,9.70
2023-03-12T20:14:45.851Z,9.70
2023-03-12T20:17:13.294Z,9.60
2023-03-12T20:19:41.188Z,9.70
2023-03-12T20:22:09.082Z,9.60
2023-03-12T20:24:36.189Z,9.70
2023-03-12T20:27:04.007Z,9.70
2023-03-12T20:29:31.524Z,9.70
2023-03-12T20:31:59.043Z,9.70
2023-03-12T20:34:26.405Z,9.60
2023-03-12T20:36:53.850Z,9.60
2023-03-12T20:39:21.042Z,9.60
2023-03-12T20:41:49.976Z,9.60
2023-03-12T20:44:18.576Z,9.70
2023-03-12T20:46:47.251Z,9.70
2023-03-12T20:49:14.947Z,9.60
2023-03-12T20:51:42.909Z,9.70
2023-03-12T20:54:10.190Z,9.70
2023-03-12T20:56:39.168Z,9.70
2023-03-12T20:59:06.302Z,9.70
2023-03-12T21:01:33.344Z,9.70
2023-03-12T21:04:00.707Z,9.80
2023-03-12T21:06:28.295Z,9.80
2023-03-12T21:08:57.084Z,9.80
2023-03-12T21:11:26.871Z,9.90
2023-03-12T21:13:54.779Z,9.90
2023-03-12T21:16:23.169Z,10.00
2023-03-12T21:18:54.654Z,10.00
2023-03-12T21:21:21.784Z,10.00
2023-03-12T21:23:49.215Z,10.00
2023-03-12T21:26:18.403Z,10.00
2023-03-12T21:28:46.297Z,10.00
2023-03-12T21:31:17.131Z,10.00
2023-03-12T21:33:44.634Z,10.10
2023-03-12T21:36:14.449Z,10.10
2023-03-12T21:38:43.218Z,10.10
2023-03-12T21:41:16.743Z,10.10
2023-03-12T21:43:45.448Z,10.10
2023-03-12T21:46:16.435Z,10.00
2023-03-12T21:48:46.496Z,10.00
2023-03-12T21:51:16.265Z,10.10
2023-03-12T21:53:43.695Z,10.00
2023-03-12T21:56:11.727Z,10.00
2023-03-12T21:58:39.387Z,10.00
2023-03-12T22:01:18.530Z,10.10
2023-03-12T22:03:46.529Z,10.20
2023-03-12T22:06:15.155Z,10.10
2023-03-12T22:08:44.079Z,10.20
2023-03-12T22:11:11.398Z,10.20
2023-03-12T22:13:38.669Z,10.20
2023-03-12T22:16:09.011Z,10.20
2023-03-12T22:18:43.106Z,10.20
2023-03-12T22:21:17.954Z,10.30
2023-03-12T22:23:51.646Z,10.30
2023-03-12T22:26:25.019Z,10.30
2023-03-12T22:28:55.332Z,10.30
2023-03-12T22:31:25.353Z,10.30
2023-03-12T22:33:52.606Z,10.40
2023-03-12T22:36:20.864Z,10.30
2023-03-12T22:38:48.334Z,10.30
2023-03-12T22:41:23.254Z,10.30
2023-03-12T22:43:53.641Z,10.40
2023-03-12T22:46:24.331Z,10.30
2023-03-12T22:49:01.135Z,10.30
2023-03-12T22:51:30.482Z,10.30
2023-03-12T22:53:58.008Z,10.30
2023-03-12T22:56:25.504Z,10.30
2023-03-12T22:58:52.731Z,10.30
2023-03-12T23:01:22.180Z,10.30
2023-03-12T23:03:50.449Z,10.30
2023-03-12T23:06:23.301Z,10.30
2023-03-12T23:08:51.430Z,10.20
2023-03-12T23:11:20.761Z,10.10
2023-03-12T23:13:49.835Z,10.10
2023-03-12T23:16:25.238Z,10.10
2023-03-12T23:18:53.104Z,10.10
2023-03-12T23:21:23.469Z,10.10
2023-03-12T23:23:52.336Z,10.10
2023-03-12T23:26:24.648Z,10.20
2023-03-12T23:28:53.779Z,10.20
2023-03-12T23:31:21.176Z,10.20
2023-03-12T23:33:48.625Z,10.20
2023-03-12T23:36:19.405Z,10.10
2023-03-12T23:38:48.339Z,10.10
2023-03-12T23:41:29.500Z,10.10
2023-03-12T23:43:58.292Z,10.00
2023-03-12T23:46:27.269Z,10.00
2023-03-12T23:48:54.951Z,9.90
2023-03-12T23:51:32.877Z,9.90
2023-03-12T23:54:05.295Z,9.80
2023-03-12T23:56:35.835Z,9.80
2023-03-12T23:59:05.737Z,9.70
